Time;durP1;ratioP1;P1;durP2;ratioP2;P2;SDS_P1;SDS_P2;PMS_P1;PMS_P2;Temp;Humidity;BMP_temperature;BMP_pressure;BME280_temperature;BME280_humidity;BME280_pressure;Samples;Min_cycle;Max_cycle;Signal;HPM_P1;HPM_P2
2022/08/17 00:01:49;;;;;;;10.63;6.43;;;;;;;;;;4965012;28;20054;-85
2022/08/17 00:04:17;;;;;;;10.38;6.43;;;;;;;;;;4942468;28;20042;-85
2022/08/17 00:06:43;;;;;;;9.50;6.93;;;;;;;;;;4988445;28;20044;-85
2022/08/17 00:09:08;;;;;;;8.48;6.70;;;;;;;;;;4957374;28;20390;-84
2022/08/17 00:11:42;;;;;;;9.23;7.07;;;;;;;;;;4972206;28;20424;-84
2022/08/17 00:14:09;;;;;;;10.68;7.30;;;;;;;;;;4992353;28;20038;-84
2022/08/17 00:16:41;;;;;;;8.57;6.60;;;;;;;;;;4961839;28;20034;-85
2022/08/17 00:19:10;;;;;;;9.20;7.30;;;;;;;;;;4981828;28;20034;-85
2022/08/17 00:21:37;;;;;;;10.05;7.25;;;;;;;;;;4974858;28;20034;-85
2022/08/17 00:24:03;;;;;;;10.52;7.00;;;;;;;;;;4974306;28;20046;-85
2022/08/17 00:26:28;;;;;;;11.40;8.13;;;;;;;;;;4970616;28;20048;-85
2022/08/17 00:28:54;;;;;;;8.50;7.10;;;;;;;;;;4975217;28;20072;-84
2022/08/17 00:31:20;;;;;;;9.23;7.38;;;;;;;;;;4975864;28;20121;-85
2022/08/17 00:33:46;;;;;;;10.80;6.93;;;;;;;;;;4973963;28;20452;-86
2022/08/17 00:36:13;;;;;;;9.02;7.32;;;;;;;;;;4980677;28;20030;-85
2022/08/17 00:38:38;;;;;;;9.10;7.55;;;;;;;;;;4952396;28;20533;-85
2022/08/17 00:41:22;;;;;;;9.15;7.15;;;;;;;;;;4944876;28;20049;-85
2022/08/17 00:43:57;;;;;;;10.73;7.57;;;;;;;;;;4960654;28;20557;-84
2022/08/17 00:46:27;;;;;;;8.55;7.05;;;;;;;;;;4942891;28;20041;-85
2022/08/17 00:48:52;;;;;;;10.52;7.68;;;;;;;;;;4960552;28;20379;-85
2022/08/17 00:51:34;;;;;;;9.57;7.28;;;;;;;;;;4956554;28;20038;-85
2022/08/17 00:54:10;;;;;;;11.10;7.50;;;;;;;;;;4962951;28;20497;-85
2022/08/17 00:56:40;;;;;;;8.95;6.60;;;;;;;;;;4962749;28;20758;-85
2022/08/17 00:59:07;;;;;;;10.85;6.80;;;;;;;;;;4971660;28;20038;-84
2022/08/17 01:01:33;;;;;;;9.10;7.03;;;;;;;;;;4944046;28;20035;-85
2022/08/17 01:04:00;;;;;;;9.77;7.43;;;;;;;;;;4950370;28;20247;-85
2022/08/17 01:06:27;;;;;;;8.70;6.53;;;;;;;;;;4959731;28;20034;-85
2022/08/17 01:08:53;;;;;;;9.27;7.00;;;;;;;;;;4965883;28;20050;-84
2022/08/17 01:11:19;;;;;;;10.85;7.45;;;;;;;;;;4968584;28;20030;-84
2022/08/17 01:13:46;;;;;;;10.32;7.10;;;;;;;;;;4938453;28;20046;-85
2022/08/17 01:16:19;;;;;;;10.07;7.50;;;;;;;;;;4950104;28;20593;-85
2022/08/17 01:18:47;;;;;;;10.55;7.65;;;;;;;;;;4957164;28;21230;-84
2022/08/17 01:21:35;;;;;;;8.98;7.18;;;;;;;;;;4958824;28;20030;-84
2022/08/17 01:24:01;;;;;;;9.95;7.03;;;;;;;;;;4969176;28;20596;-85
2022/08/17 01:26:28;;;;;;;10.55;7.75;;;;;;;;;;4941453;28;20054;-85
2022/08/17 01:28:54;;;;;;;9.77;7.88;;;;;;;;;;4967903;28;20105;-85
2022/08/17 01:31:19;;;;;;;10.25;7.22;;;;;;;;;;4954080;28;20035;-85
2022/08/17 01:33:44;;;;;;;10.07;7.68;;;;;;;;;;4974079;28;20037;-85
2022/08/17 01:36:10;;;;;;;9.50;6.90;;;;;;;;;;4972803;28;20035;-85
2022/08/17 01:38:37;;;;;;;9.32;7.07;;;;;;;;;;4962976;28;20030;-85
2022/08/17 01:41:06;;;;;;;9.70;6.70;;;;;;;;;;4950114;28;20517;-85
2022/08/17 01:43:40;;;;;;;9.45;7.53;;;;;;;;;;4956373;28;20409;-86
2022/08/17 01:46:06;;;;;;;8.18;6.78;;;;;;;;;;4963707;28;20037;-86
2022/08/17 01:48:33;;;;;;;10.05;7.45;;;;;;;;;;4978270;28;20502;-86
2022/08/17 01:50:59;;;;;;;11.15;7.13;;;;;;;;;;4979131;28;20450;-86
2022/08/17 01:53:36;;;;;;;9.52;7.03;;;;;;;;;;4970621;28;20127;-86
2022/08/17 01:56:06;;;;;;;9.90;7.53;;;;;;;;;;4956973;28;20061;-86
2022/08/17 01:58:34;;;;;;;9.85;7.13;;;;;;;;;;4946831;28;20393;-85
2022/08/17 02:00:59;;;;;;;8.27;6.95;;;;;;;;;;4949288;28;20129;-85
2022/08/17 02:03:25;;;;;;;9.50;7.32;;;;;;;;;;4974331;28;20122;-85
2022/08/17 02:05:52;;;;;;;9.50;7.07;;;;;;;;;;4975362;28;20039;-85
2022/08/17 02:08:19;;;;;;;8.95;7.05;;;;;;;;;;4944964;28;20039;-85
2022/08/17 02:10:44;;;;;;;9.65;7.03;;;;;;;;;;4961890;28;20159;-84
2022/08/17 02:13:10;;;;;;;11.45;7.47;;;;;;;;;;4959896;28;20163;-85
2022/08/17 02:15:36;;;;;;;9.68;7.20;;;;;;;;;;4947947;28;20225;-84
2022/08/17 02:18:03;;;;;;;10.55;7.25;;;;;;;;;;4975022;28;20131;-85
2022/08/17 02:20:30;;;;;;;9.57;6.90;;;;;;;;;;4974535;28;20041;-86
2022/08/17 02:22:56;;;;;;;9.18;6.78;;;;;;;;;;4947251;28;20431;-87
2022/08/17 02:25:21;;;;;;;10.10;7.30;;;;;;;;;;4948298;28;20401;-87
2022/08/17 02:27:47;;;;;;;9.25;6.95;;;;;;;;;;4956018;28;20073;-83
2022/08/17 02:30:13;;;;;;;8.82;7.00;;;;;;;;;;4965637;28;20027;-84
2022/08/17 02:32:39;;;;;;;9.80;6.93;;;;;;;;;;4960227;28;20506;-84
2022/08/17 02:35:05;;;;;;;10.35;7.35;;;;;;;;;;4980114;28;20109;-84
2022/08/17 02:37:31;;;;;;;8.60;7.03;;;;;;;;;;4959944;28;20031;-84
2022/08/17 02:39:57;;;;;;;9.07;7.05;;;;;;;;;;4960009;28;20583;-84
2022/08/17 02:42:28;;;;;;;9.70;7.15;;;;;;;;;;4948860;28;20112;-84
2022/08/17 02:44:54;;;;;;;8.65;7.10;;;;;;;;;;4994226;28;20134;-84
2022/08/17 02:47:19;;;;;;;9.52;7.20;;;;;;;;;;4978710;28;20553;-83
2022/08/17 02:49:44;;;;;;;10.00;7.32;;;;;;;;;;4978266;28;20489;-83
2022/08/17 02:52:10;;;;;;;11.65;7.45;;;;;;;;;;4960110;28;20038;-84
2022/08/17 02:54:36;;;;;;;13.00;6.90;;;;;;;;;;4964954;28;20089;-84
2022/08/17 02:57:02;;;;;;;9.57;7.35;;;;;;;;;;4964501;28;20398;-84
2022/08/17 02:59:28;;;;;;;11.13;7.35;;;;;;;;;;4953227;28;20038;-83
2022/08/17 03:01:54;;;;;;;10.30;7.47;;;;;;;;;;4977001;28;20073;-84
2022/08/17 03:04:20;;;;;;;10.55;7.25;;;;;;;;;;4947967;28;20034;-83
2022/08/17 03:06:45;;;;;;;9.35;7.63;;;;;;;;;;4974167;28;20038;-83
2022/08/17 03:09:10;;;;;;;10.93;7.40;;;;;;;;;;4946827;28;20031;-84
2022/08/17 03:11:36;;;;;;;10.73;8.15;;;;;;;;;;4958225;28;20497;-83
2022/08/17 03:14:01;;;;;;;11.50;7.93;;;;;;;;;;4957320;28;20505;-83
2022/08/17 03:16:26;;;;;;;12.27;7.90;;;;;;;;;;4980737;28;20113;-84
2022/08/17 03:18:53;;;;;;;11.80;8.60;;;;;;;;;;4978331;28;20568;-84
2022/08/17 03:21:18;;;;;;;11.00;8.20;;;;;;;;;;4960418;28;20041;-83
2022/08/17 03:23:44;;;;;;;10.32;8.25;;;;;;;;;;4952960;28;20489;-84
2022/08/17 03:26:09;;;;;;;11.52;8.02;;;;;;;;;;4962929;28;20093;-84
2022/08/17 03:28:36;;;;;;;11.48;8.02;;;;;;;;;;4951565;28;20072;-84
2022/08/17 03:31:02;;;;;;;11.32;8.13;;;;;;;;;;4970247;28;20037;-83
2022/08/17 03:33:27;;;;;;;9.55;7.63;;;;;;;;;;4964365;28;20501;-83
2022/08/17 03:35:52;;;;;;;8.65;7.47;;;;;;;;;;4956793;28;20046;-84
2022/08/17 03:38:18;;;;;;;11.23;7.43;;;;;;;;;;4951452;28;20030;-83
2022/08/17 03:40:45;;;;;;;11.77;8.10;;;;;;;;;;4964506;28;20042;-84
2022/08/17 03:43:11;;;;;;;10.73;8.43;;;;;;;;;;4949749;28;20039;-84
2022/08/17 03:56:42;;;;;;;11.52;9.13;;;;;;;;;;4973549;28;20050;-83
2022/08/17 03:59:17;;;;;;;11.63;8.77;;;;;;;;;;4977986;28;20104;-84
2022/08/17 04:01:45;;;;;;;12.75;9.35;;;;;;;;;;4974411;28;20038;-84
2022/08/17 04:04:11;;;;;;;11.68;9.15;;;;;;;;;;4940772;28;20038;-84
2022/08/17 04:06:37;;;;;;;12.30;9.27;;;;;;;;;;4982441;28;20501;-83
2022/08/17 04:09:02;;;;;;;12.38;9.02;;;;;;;;;;4980402;28;20080;-83
2022/08/17 04:11:28;;;;;;;11.68;7.97;;;;;;;;;;4931570;28;20402;-83
2022/08/17 04:13:55;;;;;;;11.00;7.93;;;;;;;;;;4960175;28;20038;-84
2022/08/17 04:16:21;;;;;;;10.88;8.20;;;;;;;;;;4949605;28;20038;-84
2022/08/17 04:18:46;;;;;;;11.88;8.32;;;;;;;;;;4971743;28;20043;-84
2022/08/17 04:21:11;;;;;;;10.90;8.20;;;;;;;;;;4938849;28;20034;-84
2022/08/17 04:23:37;;;;;;;12.38;8.05;;;;;;;;;;4979648;28;20035;-83
2022/08/17 04:26:02;;;;;;;10.73;8.05;;;;;;;;;;4962155;28;20042;-84
2022/08/17 04:28:29;;;;;;;10.15;8.38;;;;;;;;;;4962827;28;20129;-84
2022/08/17 04:30:55;;;;;;;10.73;8.20;;;;;;;;;;4965787;28;20044;-84
2022/08/17 04:33:23;;;;;;;11.30;8.48;;;;;;;;;;4973005;28;20685;-84
2022/08/17 04:35:51;;;;;;;11.50;8.20;;;;;;;;;;4972497;28;20121;-85
2022/08/17 04:38:18;;;;;;;10.77;8.43;;;;;;;;;;4965745;28;20027;-85
2022/08/17 04:43:30;;;;;;;11.38;8.63;;;;;;;;;;4967424;28;20037;-86
2022/08/17 04:46:02;;;;;;;11.57;8.15;;;;;;;;;;4980555;28;20045;-85
2022/08/17 04:48:32;;;;;;;10.98;7.93;;;;;;;;;;4978237;28;20125;-85
2022/08/17 04:50:58;;;;;;;12.68;8.07;;;;;;;;;;4947841;28;20042;-85
2022/08/17 04:53:24;;;;;;;10.60;7.82;;;;;;;;;;4960165;28;20037;-85
2022/08/17 04:55:53;;;;;;;11.68;8.02;;;;;;;;;;4959690;28;20482;-85
2022/08/17 04:58:19;;;;;;;11.95;8.15;;;;;;;;;;4979598;28;20030;-85
2022/08/17 05:00:44;;;;;;;15.13;8.98;;;;;;;;;;4949246;28;20585;-85
2022/08/17 05:03:10;;;;;;;12.45;8.43;;;;;;;;;;4963748;28;20268;-85
2022/08/17 05:05:38;;;;;;;12.60;8.93;;;;;;;;;;4939363;28;20048;-84
2022/08/17 05:08:05;;;;;;;10.82;9.18;;;;;;;;;;4950274;28;20053;-83
2022/08/17 05:10:35;;;;;;;10.02;8.20;;;;;;;;;;4952092;28;20030;-84
2022/08/17 05:13:05;;;;;;;10.98;7.93;;;;;;;;;;4962711;28;20043;-84
2022/08/17 05:15:33;;;;;;;13.35;8.25;;;;;;;;;;4955814;28;20035;-84
2022/08/17 05:17:59;;;;;;;10.15;8.02;;;;;;;;;;4949666;28;20035;-84
2022/08/17 05:20:24;;;;;;;11.23;8.75;;;;;;;;;;4950420;28;20037;-84
2022/08/17 05:22:55;;;;;;;12.98;9.65;;;;;;;;;;4964609;28;20034;-84
2022/08/17 05:25:25;;;;;;;12.35;9.10;;;;;;;;;;4958114;28;20125;-84
2022/08/17 05:27:50;;;;;;;13.10;9.52;;;;;;;;;;4952001;28;20051;-84
2022/08/17 05:30:16;;;;;;;13.90;9.63;;;;;;;;;;4950086;28;20050;-85
2022/08/17 05:32:52;;;;;;;12.15;8.60;;;;;;;;;;4950980;28;20040;-84
2022/08/17 05:35:18;;;;;;;14.48;9.55;;;;;;;;;;4950635;28;20034;-85
2022/08/17 05:37:43;;;;;;;10.30;8.27;;;;;;;;;;4975802;28;20042;-83
2022/08/17 05:40:09;;;;;;;12.30;8.95;;;;;;;;;;4974728;28;20490;-85
2022/08/17 05:42:34;;;;;;;11.52;8.65;;;;;;;;;;4960738;28;20107;-84
2022/08/17 05:45:00;;;;;;;12.13;8.50;;;;;;;;;;4962404;28;20034;-85
2022/08/17 05:47:26;;;;;;;12.05;8.15;;;;;;;;;;4961549;28;20033;-84
2022/08/17 05:49:51;;;;;;;10.60;8.05;;;;;;;;;;4993265;28;20384;-85
2022/08/17 05:52:24;;;;;;;10.68;7.85;;;;;;;;;;4947520;28;20038;-84
2022/08/17 05:55:05;;;;;;;10.57;7.72;;;;;;;;;;4991800;28;20362;-85
2022/08/17 05:57:54;;;;;;;13.13;8.07;;;;;;;;;;4949031;28;20038;-84
2022/08/17 06:00:26;;;;;;;10.15;7.78;;;;;;;;;;4972255;28;20422;-85
2022/08/17 06:03:18;;;;;;;9.48;7.43;;;;;;;;;;4983601;28;20041;-85
2022/08/17 06:05:46;;;;;;;9.95;7.25;;;;;;;;;;4945287;28;20042;-82
2022/08/17 06:08:30;;;;;;;11.23;7.68;;;;;;;;;;4970381;28;20529;-83
2022/08/17 06:11:10;;;;;;;11.57;8.05;;;;;;;;;;4976973;28;20811;-82
2022/08/17 06:14:00;;;;;;;9.10;6.90;;;;;;;;;;4969258;28;20079;-82
2022/08/17 06:16:35;;;;;;;9.23;6.88;;;;;;;;;;4975862;28;20038;-83
2022/08/17 06:19:16;;;;;;;10.40;7.72;;;;;;;;;;4963103;28;20049;-83
2022/08/17 06:21:45;;;;;;;13.70;6.78;;;;;;;;;;4987890;28;20410;-83
2022/08/17 06:24:38;;;;;;;10.40;6.70;;;;;;;;;;4949384;28;20506;-83
2022/08/17 06:27:18;;;;;;;10.43;6.40;;;;;;;;;;4965361;28;20064;-82
2022/08/17 06:29:53;;;;;;;11.20;7.57;;;;;;;;;;4955044;28;20035;-82
2022/08/17 06:32:19;;;;;;;11.70;7.10;;;;;;;;;;4991784;28;20494;-82
2022/08/17 06:34:45;;;;;;;12.88;7.70;;;;;;;;;;4975520;28;20043;-82
2022/08/17 06:37:30;;;;;;;10.50;7.55;;;;;;;;;;4962175;28;20058;-83
2022/08/17 06:40:14;;;;;;;9.23;6.38;;;;;;;;;;4972232;28;20061;-83
2022/08/17 06:43:00;;;;;;;9.50;6.93;;;;;;;;;;4947073;28;20041;-80
2022/08/17 06:45:47;;;;;;;10.63;7.18;;;;;;;;;;4972884;28;20035;-81
2022/08/17 06:48:39;;;;;;;8.43;6.20;;;;;;;;;;4952184;28;20409;-81
2022/08/17 06:51:23;;;;;;;10.95;6.40;;;;;;;;;;4969514;28;20378;-81
2022/08/17 06:53:58;;;;;;;9.70;6.82;;;;;;;;;;4973375;28;20124;-81
2022/08/17 06:56:43;;;;;;;8.23;6.15;;;;;;;;;;4946061;28;20034;-81
2022/08/17 06:59:14;;;;;;;8.95;5.93;;;;;;;;;;4964546;28;20168;-81
2022/08/17 07:01:40;;;;;;;7.63;5.00;;;;;;;;;;4962132;28;20035;-81
2022/08/17 07:04:11;;;;;;;9.70;4.90;;;;;;;;;;4946457;28;20038;-82
2022/08/17 07:06:45;;;;;;;6.43;4.30;;;;;;;;;;4963892;28;20347;-81
2022/08/17 07:09:36;;;;;;;6.40;4.47;;;;;;;;;;4946113;28;20042;-82
2022/08/17 07:12:09;;;;;;;8.23;4.80;;;;;;;;;;4960745;28;20048;-81
2022/08/17 07:14:44;;;;;;;7.40;5.15;;;;;;;;;;4962647;28;20901;-82
2022/08/17 07:17:13;;;;;;;6.15;4.40;;;;;;;;;;4970357;28;20034;-82
2022/08/17 07:19:41;;;;;;;7.50;4.55;;;;;;;;;;4962943;28;20494;-82
2022/08/17 07:22:13;;;;;;;7.97;4.50;;;;;;;;;;4948245;28;20035;-82
2022/08/17 07:24:50;;;;;;;7.93;4.63;;;;;;;;;;4992261;28;20042;-82
2022/08/17 07:27:32;;;;;;;7.07;4.38;;;;;;;;;;4973548;28;20436;-82
2022/08/17 07:30:05;;;;;;;6.00;4.80;;;;;;;;;;4961984;28;20065;-82
2022/08/17 07:32:43;;;;;;;9.05;5.00;;;;;;;;;;4962655;28;20045;-82
2022/08/17 07:35:27;;;;;;;7.75;4.95;;;;;;;;;;4995917;28;20508;-82
2022/08/17 07:38:09;;;;;;;6.88;4.10;;;;;;;;;;4992042;28;20046;-82
2022/08/17 07:40:39;;;;;;;5.30;3.72;;;;;;;;;;4994933;28;20100;-83
2022/08/17 07:43:10;;;;;;;6.78;4.00;;;;;;;;;;4963096;28;20046;-81
2022/08/17 07:48:35;;;;;;;6.45;3.63;;;;;;;;;;4973364;28;20513;-81
2022/08/17 07:51:02;;;;;;;7.20;3.50;;;;;;;;;;4986438;28;20105;-81
2022/08/17 07:53:29;;;;;;;6.43;3.40;;;;;;;;;;4946169;28;20168;-81
2022/08/17 07:55:55;;;;;;;6.03;3.50;;;;;;;;;;4945783;28;20030;-81
2022/08/17 07:58:22;;;;;;;6.72;3.08;;;;;;;;;;4965759;28;20081;-81
2022/08/17 08:01:09;;;;;;;4.47;3.10;;;;;;;;;;4955978;28;20515;-82
2022/08/17 08:03:41;;;;;;;4.57;3.10;;;;;;;;;;4971282;28;20027;-82
2022/08/17 08:06:20;;;;;;;5.60;3.35;;;;;;;;;;4960335;28;20035;-83
2022/08/17 08:08:51;;;;;;;4.25;2.85;;;;;;;;;;4959246;28;20046;-82
2022/08/17 08:11:32;;;;;;;7.50;3.25;;;;;;;;;;4975262;28;20511;-82
2022/08/17 08:14:24;;;;;;;5.40;3.05;;;;;;;;;;4974946;28;20080;-82
2022/08/17 08:16:59;;;;;;;6.10;2.70;;;;;;;;;;4939882;28;20118;-82
2022/08/17 08:19:25;;;;;;;4.25;3.00;;;;;;;;;;4963651;28;20030;-82
2022/08/17 08:22:16;;;;;;;4.20;2.78;;;;;;;;;;4976044;28;20400;-82
2022/08/17 08:24:51;;;;;;;4.82;2.67;;;;;;;;;;4994455;28;20525;-82
2022/08/17 08:27:44;;;;;;;5.40;2.50;;;;;;;;;;4958855;28;20131;-82
2022/08/17 08:30:10;;;;;;;3.60;2.25;;;;;;;;;;4972375;28;20121;-83
2022/08/17 08:33:19;;;;;;;5.32;2.40;;;;;;;;;;4959972;28;20038;-83
2022/08/17 08:35:54;;;;;;;5.90;2.05;;;;;;;;;;4955391;28;20034;-81
2022/08/17 08:38:35;;;;;;;4.85;2.20;;;;;;;;;;4967884;28;20982;-81
2022/08/17 08:41:07;;;;;;;5.07;2.30;;;;;;;;;;4953806;28;20030;-82
2022/08/17 08:44:04;;;;;;;5.50;2.38;;;;;;;;;;4992118;28;20073;-82
2022/08/17 08:46:43;;;;;;;5.75;2.40;;;;;;;;;;4942424;28;20457;-81
2022/08/17 08:49:30;;;;;;;3.30;2.10;;;;;;;;;;4938426;28;20039;-82
2022/08/17 08:51:57;;;;;;;2.70;1.73;;;;;;;;;;4975050;28;20626;-81
2022/08/17 08:54:52;;;;;;;4.38;2.28;;;;;;;;;;4959336;28;20140;-81
2022/08/17 08:57:20;;;;;;;4.07;2.00;;;;;;;;;;4965128;28;20124;-82
2022/08/17 09:00:14;;;;;;;3.50;2.08;;;;;;;;;;4975138;28;20370;-82
2022/08/17 09:02:40;;;;;;;4.70;1.90;;;;;;;;;;4965738;28;20034;-82
2022/08/17 09:05:24;;;;;;;4.70;2.13;;;;;;;;;;4968179;28;20047;-82
2022/08/17 09:08:15;;;;;;;3.25;1.90;;;;;;;;;;4986876;28;20567;-82
2022/08/17 09:10:58;;;;;;;5.35;1.95;;;;;;;;;;4976405;28;20041;-82
2022/08/17 09:13:52;;;;;;;3.85;1.80;;;;;;;;;;4945463;28;20033;-82
2022/08/17 09:16:31;;;;;;;4.68;1.83;;;;;;;;;;4956735;28;20513;-83
2022/08/17 09:19:14;;;;;;;4.30;1.90;;;;;;;;;;4946893;28;20575;-82
2022/08/17 09:21:51;;;;;;;3.45;1.70;;;;;;;;;;4959874;28;20102;-81
2022/08/17 09:24:24;;;;;;;4.75;1.65;;;;;;;;;;4972642;28;20034;-81
2022/08/17 09:27:05;;;;;;;3.03;1.33;;;;;;;;;;4959990;28;20046;-82
2022/08/17 09:29:35;;;;;;;2.42;1.25;;;;;;;;;;4942443;28;20050;-81
2022/08/17 09:32:18;;;;;;;3.42;1.40;;;;;;;;;;4943209;28;20031;-81
2022/08/17 09:35:18;;;;;;;4.65;2.30;;;;;;;;;;4958846;28;20486;-82
2022/08/17 09:37:55;;;;;;;2.70;1.42;;;;;;;;;;4871983;29;20064;-82
2022/08/17 09:40:28;;;;;;;3.90;1.50;;;;;;;;;;4887416;29;20104;-81
2022/08/17 09:43:02;;;;;;;2.80;1.40;;;;;;;;;;4888484;29;20112;-81
2022/08/17 09:45:44;;;;;;;3.30;1.27;;;;;;;;;;4861974;29;20564;-81
2022/08/17 09:48:16;;;;;;;3.63;1.40;;;;;;;;;;4871089;29;20079;-81
2022/08/17 09:50:52;;;;;;;3.08;1.52;;;;;;;;;;4872469;29;20040;-81
2022/08/17 09:53:18;;;;;;;2.92;1.40;;;;;;;;;;4871492;29;20048;-80
2022/08/17 09:55:56;;;;;;;2.70;1.25;;;;;;;;;;4880620;29;20041;-81
2022/08/17 09:58:58;;;;;;;2.97;1.35;;;;;;;;;;4880991;29;20381;-81
2022/08/17 10:01:42;;;;;;;3.70;1.33;;;;;;;;;;4870553;29;20043;-81
2022/08/17 10:04:32;;;;;;;3.72;1.40;;;;;;;;;;4858348;29;20516;-81
2022/08/17 10:07:14;;;;;;;4.80;1.58;;;;;;;;;;4890478;29;20033;-82
2022/08/17 10:10:03;;;;;;;3.97;1.42;;;;;;;;;;4872154;29;20033;-81
2022/08/17 10:12:31;;;;;;;4.00;1.20;;;;;;;;;;4890967;29;20064;-81
2022/08/17 10:15:09;;;;;;;4.45;1.20;;;;;;;;;;4934344;28;20094;-81
2022/08/17 10:18:16;;;;;;;2.97;1.20;;;;;;;;;;4964005;28;20049;-89
2022/08/17 10:20:48;;;;;;;2.40;1.20;;;;;;;;;;4972287;28;20035;-86
2022/08/17 10:26:20;;;;;;;3.47;1.40;;;;;;;;;;4963116;28;20280;-85
2022/08/17 10:29:08;;;;;;;2.55;1.30;;;;;;;;;;4966713;28;20042;-86
2022/08/17 10:31:44;;;;;;;2.58;1.10;;;;;;;;;;4977413;28;20045;-84
2022/08/17 10:34:28;;;;;;;1.98;1.10;;;;;;;;;;4996067;28;20129;-86
2022/08/17 10:37:15;;;;;;;2.97;1.20;;;;;;;;;;4974034;28;20455;-86
2022/08/17 10:40:13;;;;;;;3.17;1.30;;;;;;;;;;4975142;28;20042;-85
2022/08/17 10:42:56;;;;;;;2.53;1.40;;;;;;;;;;4940988;28;21057;-85
2022/08/17 10:45:44;;;;;;;3.28;1.45;;;;;;;;;;4928824;28;20042;-84
2022/08/17 10:48:11;;;;;;;3.88;1.35;;;;;;;;;;4996716;28;20036;-85
2022/08/17 10:50:48;;;;;;;3.42;1.30;;;;;;;;;;4972384;28;20046;-85
2022/08/17 10:53:47;;;;;;;2.13;1.05;;;;;;;;;;4964082;28;20476;-85
2022/08/17 10:56:12;;;;;;;2.47;1.40;;;;;;;;;;4952233;28;20417;-85
2022/08/17 10:59:07;;;;;;;2.87;1.30;;;;;;;;;;4975455;28;20045;-84
2022/08/17 11:01:36;;;;;;;2.23;1.07;;;;;;;;;;4942785;28;20038;-85
2022/08/17 11:04:17;;;;;;;4.15;1.40;;;;;;;;;;4976637;28;20276;-85
2022/08/17 11:07:07;;;;;;;2.70;1.00;;;;;;;;;;4977227;28;20038;-84
2022/08/17 11:09:51;;;;;;;2.60;1.20;;;;;;;;;;4976031;28;20042;-85
2022/08/17 11:12:37;;;;;;;4.75;1.30;;;;;;;;;;4940807;28;20057;-84
2022/08/17 11:15:23;;;;;;;4.22;1.50;;;;;;;;;;4959928;28;20497;-85
2022/08/17 11:18:00;;;;;;;2.20;1.17;;;;;;;;;;4945837;28;20062;-85
2022/08/17 11:20:54;;;;;;;3.22;1.65;;;;;;;;;;4966155;28;20046;-84
2022/08/17 11:23:32;;;;;;;3.85;1.45;;;;;;;;;;4946785;28;20885;-84
2022/08/17 11:26:02;;;;;;;2.92;1.50;;;;;;;;;;4964136;28;20529;-84
2022/08/17 11:28:34;;;;;;;3.40;1.70;;;;;;;;;;4968483;28;20054;-84
2022/08/17 11:31:23;;;;;;;4.78;1.60;;;;;;;;;;4960434;28;20049;-86
2022/08/17 11:33:54;;;;;;;3.63;1.65;;;;;;;;;;4951265;28;20039;-85
2022/08/17 11:36:30;;;;;;;4.05;1.60;;;;;;;;;;4941182;28;20035;-85
2022/08/17 11:38:58;;;;;;;6.00;1.88;;;;;;;;;;4947545;28;20603;-85
2022/08/17 11:41:32;;;;;;;3.78;1.65;;;;;;;;;;4962979;28;20409;-83
2022/08/17 11:44:23;;;;;;;3.72;1.65;;;;;;;;;;4975019;28;20405;-85
2022/08/17 11:52:42;;;;;;;3.17;1.52;;;;;;;;;;4991800;28;20126;-85
2022/08/17 11:55:31;;;;;;;3.17;1.60;;;;;;;;;;4964266;28;20488;-83
2022/08/17 11:57:59;;;;;;;4.00;1.50;;;;;;;;;;4991738;28;20114;-84
2022/08/17 12:01:01;;;;;;;3.03;1.42;;;;;;;;;;4949803;28;20444;-86
2022/08/17 12:03:30;;;;;;;4.05;1.50;;;;;;;;;;4904231;29;20099;-85
2022/08/17 12:06:04;;;;;;;4.43;1.42;;;;;;;;;;4960086;28;20042;-84
2022/08/17 12:08:31;;;;;;;2.90;1.60;;;;;;;;;;4973951;28;20053;-83
2022/08/17 12:10:59;;;;;;;3.38;1.60;;;;;;;;;;4929801;28;20159;-83
2022/08/17 12:13:26;;;;;;;2.65;1.50;;;;;;;;;;4976484;28;20037;-82
2022/08/17 12:15:53;;;;;;;2.92;1.77;;;;;;;;;;4941098;28;20042;-84
2022/08/17 12:18:26;;;;;;;2.97;1.70;;;;;;;;;;4951669;28;20042;-84
2022/08/17 12:21:18;;;;;;;3.00;1.60;;;;;;;;;;4949667;28;20038;-85
2022/08/17 12:23:50;;;;;;;5.40;1.80;;;;;;;;;;4962616;28;20537;-85
2022/08/17 12:26:18;;;;;;;3.15;1.80;;;;;;;;;;4929369;28;20558;-84
2022/08/17 12:28:46;;;;;;;3.67;1.77;;;;;;;;;;4945066;28;20113;-83
2022/08/17 12:31:25;;;;;;;3.65;2.00;;;;;;;;;;4950867;28;20726;-84
2022/08/17 12:33:51;;;;;;;3.72;1.70;;;;;;;;;;4974688;28;20040;-83
2022/08/17 12:36:26;;;;;;;3.60;2.00;;;;;;;;;;4975432;28;20029;-81
2022/08/17 12:39:05;;;;;;;3.83;1.90;;;;;;;;;;4959069;28;20038;-83
2022/08/17 12:41:41;;;;;;;3.00;1.70;;;;;;;;;;4949518;28;20509;-84
2022/08/17 12:44:15;;;;;;;6.25;1.85;;;;;;;;;;4939672;28;20026;-83
2022/08/17 12:47:08;;;;;;;3.13;1.60;;;;;;;;;;4970314;28;20030;-84
2022/08/17 12:49:40;;;;;;;4.13;2.05;;;;;;;;;;4955422;28;20027;-84
2022/08/17 12:52:11;;;;;;;4.13;2.08;;;;;;;;;;4959971;28;20035;-84
2022/08/17 12:54:47;;;;;;;4.10;1.80;;;;;;;;;;4970492;28;20116;-83
2022/08/17 12:57:31;;;;;;;3.77;1.80;;;;;;;;;;4960435;28;20105;-83
2022/08/17 13:00:30;;;;;;;3.70;1.90;;;;;;;;;;4968227;28;20042;-83
2022/08/17 13:03:04;;;;;;;3.35;1.90;;;;;;;;;;4949509;28;20089;-84
2022/08/17 13:05:36;;;;;;;4.10;1.70;;;;;;;;;;4944994;28;20044;-83
2022/08/17 13:08:12;;;;;;;4.05;2.05;;;;;;;;;;4964693;28;20035;-82
2022/08/17 13:10:38;;;;;;;3.33;1.65;;;;;;;;;;4937347;28;20093;-81
2022/08/17 13:13:20;;;;;;;4.35;1.80;;;;;;;;;;4972457;28;20475;-83
2022/08/17 13:16:13;;;;;;;3.55;1.75;;;;;;;;;;4949730;28;20129;-83
2022/08/17 13:18:40;;;;;;;3.58;1.90;;;;;;;;;;4961462;28;20501;-83
2022/08/17 13:21:18;;;;;;;3.13;1.77;;;;;;;;;;4973377;28;20552;-84
2022/08/17 13:24:08;;;;;;;4.47;1.80;;;;;;;;;;4968818;28;20068;-83
2022/08/17 13:26:37;;;;;;;6.40;1.90;;;;;;;;;;4972694;28;20046;-83
2022/08/17 13:29:14;;;;;;;4.43;1.75;;;;;;;;;;4936262;28;20062;-83
2022/08/17 13:31:42;;;;;;;3.38;2.00;;;;;;;;;;4975040;28;20052;-84
2022/08/17 13:34:15;;;;;;;4.03;1.80;;;;;;;;;;4942324;28;20073;-83
2022/08/17 13:36:41;;;;;;;3.42;2.03;;;;;;;;;;4964049;28;20054;-83
2022/08/17 13:39:12;;;;;;;3.90;1.70;;;;;;;;;;4940449;28;20498;-84
2022/08/17 13:41:38;;;;;;;4.30;1.85;;;;;;;;;;4964202;28;20062;-84
2022/08/17 13:44:39;;;;;;;3.60;1.80;;;;;;;;;;4949955;28;20167;-84
2022/08/17 13:47:14;;;;;;;5.13;1.92;;;;;;;;;;4915695;29;20550;-82
2022/08/17 13:49:40;;;;;;;3.00;1.80;;;;;;;;;;4960118;28;20386;-82
2022/08/17 13:52:06;;;;;;;4.07;2.08;;;;;;;;;;4956088;28;20037;-83
2022/08/17 13:54:34;;;;;;;4.05;1.90;;;;;;;;;;4958875;28;20042;-84
2022/08/17 13:57:04;;;;;;;4.13;1.80;;;;;;;;;;4945601;28;20521;-83
2022/08/17 13:59:38;;;;;;;3.40;1.77;;;;;;;;;;4964145;28;20042;-82
2022/08/17 14:02:05;;;;;;;3.10;1.60;;;;;;;;;;4978200;28;20061;-83
2022/08/17 14:04:32;;;;;;;3.00;1.70;;;;;;;;;;4967297;28;20030;-83
2022/08/17 14:06:58;;;;;;;3.63;1.90;;;;;;;;;;4977026;28;20057;-83
2022/08/17 14:09:47;;;;;;;3.22;1.80;;;;;;;;;;4967598;28;20038;-83
2022/08/17 14:12:15;;;;;;;3.28;1.90;;;;;;;;;;4961613;28;20050;-82
2022/08/17 14:14:41;;;;;;;3.80;2.30;;;;;;;;;;4953949;28;20046;-82
2022/08/17 14:17:07;;;;;;;3.88;2.00;;;;;;;;;;4964184;28;25696;-83
2022/08/17 14:19:33;;;;;;;3.90;1.98;;;;;;;;;;4961684;28;20038;-84
2022/08/17 14:21:59;;;;;;;5.03;2.10;;;;;;;;;;4959414;28;20038;-83
2022/08/17 14:24:26;;;;;;;4.25;2.00;;;;;;;;;;4995943;28;20038;-84
2022/08/17 14:26:54;;;;;;;4.05;1.95;;;;;;;;;;4950095;28;20052;-81
2022/08/17 14:29:21;;;;;;;4.30;2.10;;;;;;;;;;4939722;28;20503;-81
2022/08/17 14:31:47;;;;;;;;;;;;;;;;;;4918138;29;20094;-82
2022/08/17 14:34:12;;;;;;;3.90;1.60;;;;;;;;;;4923253;29;19922;-82
2022/08/17 14:36:40;;;;;;;3.30;1.98;;;;;;;;;;4951618;28;20495;-81
2022/08/17 14:39:06;;;;;;;3.85;2.00;;;;;;;;;;4944890;28;20035;-81
2022/08/17 14:41:33;;;;;;;5.10;2.00;;;;;;;;;;4954456;28;20122;-81
2022/08/17 14:43:58;;;;;;;3.15;1.83;;;;;;;;;;4929189;29;20118;-82
2022/08/17 14:46:25;;;;;;;3.35;1.73;;;;;;;;;;4964955;28;20047;-82
2022/08/17 14:48:53;;;;;;;4.22;1.83;;;;;;;;;;4948884;28;20488;-83
2022/08/17 14:51:20;;;;;;;4.82;2.00;;;;;;;;;;4955596;28;20064;-83
2022/08/17 14:53:51;;;;;;;5.43;2.20;;;;;;;;;;4940747;28;20035;-87
2022/08/17 14:56:17;;;;;;;4.80;2.08;;;;;;;;;;4925661;28;20513;-84
2022/08/17 14:58:42;;;;;;;3.50;2.15;;;;;;;;;;4947471;28;20044;-85
2022/08/17 15:01:11;;;;;;;4.28;2.22;;;;;;;;;;4957070;28;20447;-87
2022/08/17 15:03:38;;;;;;;5.35;2.38;;;;;;;;;;4941875;28;20042;-87
2022/08/17 15:06:03;;;;;;;5.05;2.22;;;;;;;;;;4938366;28;20409;-87
2022/08/17 15:08:29;;;;;;;3.70;2.13;;;;;;;;;;4920479;28;20122;-85
2022/08/17 15:10:55;;;;;;;4.38;2.25;;;;;;;;;;4947325;28;20039;-85
2022/08/17 15:13:24;;;;;;;4.13;2.15;;;;;;;;;;4943713;28;20094;-86
2022/08/17 15:15:49;;;;;;;6.85;2.05;;;;;;;;;;4941594;28;20122;-86
2022/08/17 15:18:15;;;;;;;4.88;2.30;;;;;;;;;;4970027;28;20452;-86
2022/08/17 15:20:41;;;;;;;5.30;2.72;;;;;;;;;;4943889;28;20165;-86
2022/08/17 15:23:08;;;;;;;3.77;2.07;;;;;;;;;;4935488;28;20125;-86
2022/08/17 15:25:34;;;;;;;4.68;2.15;;;;;;;;;;4946170;28;20492;-86
2022/08/17 15:28:00;;;;;;;5.78;2.13;;;;;;;;;;4946635;28;20043;-86
2022/08/17 15:30:26;;;;;;;3.85;1.92;;;;;;;;;;4930912;28;20041;-86
2022/08/17 15:32:52;;;;;;;3.47;2.20;;;;;;;;;;4954868;28;20608;-86
2022/08/17 15:35:18;;;;;;;3.55;1.95;;;;;;;;;;4951976;28;20552;-86
2022/08/17 15:37:44;;;;;;;3.95;2.17;;;;;;;;;;4926223;28;20507;-86